createdAt,value
2019-03-26T00:03:32.899Z,2.57
2019-03-26T00:06:17.206Z,2.40
2019-03-26T00:09:02.387Z,3.30
2019-03-26T00:11:53.074Z,2.50
2019-03-26T00:14:38.165Z,2.58
2019-03-26T00:17:22.282Z,2.60
2019-03-26T00:20:06.363Z,2.90
2019-03-26T00:22:50.740Z,2.77
2019-03-26T00:25:40.880Z,2.60
2019-03-26T00:28:25.556Z,2.67
2019-03-26T00:31:12.080Z,3.02
2019-03-26T00:33:56.476Z,3.00
2019-03-26T00:36:41.886Z,2.87
2019-03-26T00:39:26.635Z,2.47
2019-03-26T00:42:11.423Z,3.73
2019-03-26T00:44:55.608Z,3.23
2019-03-26T00:47:40.452Z,3.20
2019-03-26T00:50:25.022Z,3.25
2019-03-26T00:53:10.807Z,2.27
2019-03-26T00:55:55.314Z,2.73
2019-03-26T00:58:39.862Z,2.60
2019-03-26T01:01:24.466Z,3.13
2019-03-26T01:03:57.999Z,2.20
2019-03-26T01:06:41.956Z,2.57
2019-03-26T01:09:26.287Z,2.60
2019-03-26T01:12:11.282Z,2.93
2019-03-26T01:14:56.078Z,2.53
2019-03-26T01:17:42.270Z,2.95
2019-03-26T01:20:28.242Z,2.47
2019-03-26T01:23:12.063Z,3.27
2019-03-26T01:25:56.877Z,2.93
2019-03-26T01:28:41.331Z,2.93
2019-03-26T01:31:25.392Z,3.73
2019-03-26T01:34:10.665Z,2.80
2019-03-26T01:36:55.703Z,3.00
2019-03-26T01:39:40.351Z,2.90
2019-03-26T01:42:24.701Z,3.07
2019-03-26T01:45:09.276Z,2.80
2019-03-26T01:47:53.737Z,3.20
2019-03-26T01:50:38.413Z,2.90
2019-03-26T01:53:22.626Z,2.73
2019-03-26T01:56:07.236Z,3.00
2019-03-26T01:58:52.716Z,3.47
2019-03-26T02:01:26.131Z,3.50
2019-03-26T02:04:10.627Z,2.90
2019-03-26T02:06:55.353Z,4.25
2019-03-26T02:09:40.238Z,2.97
2019-03-26T02:12:25.015Z,3.20
2019-03-26T02:18:18.538Z,3.30
2019-03-26T02:21:02.804Z,3.50
2019-03-26T02:23:46.880Z,3.47
2019-03-26T02:26:31.151Z,2.90
2019-03-26T02:29:15.634Z,3.43
2019-03-26T02:32:00.842Z,3.13
2019-03-26T02:34:34.613Z,2.83
2019-03-26T02:37:18.557Z,3.23
2019-03-26T02:40:03.579Z,3.23
2019-03-26T02:42:48.902Z,2.95
2019-03-26T02:45:33.730Z,3.20
2019-03-26T02:48:18.900Z,3.60
2019-03-26T02:51:03.718Z,2.95
2019-03-26T02:53:48.802Z,3.93
2019-03-26T02:56:33.371Z,3.33
2019-03-26T02:59:17.589Z,3.20
2019-03-26T03:02:01.875Z,2.92
2019-03-26T03:04:46.111Z,3.37
2019-03-26T03:07:35.998Z,3.40
2019-03-26T03:13:23.008Z,2.83
2019-03-26T03:16:07.989Z,2.90
2019-03-26T03:18:51.927Z,2.80
2019-03-26T03:21:36.093Z,3.50
2019-03-26T03:24:21.083Z,3.50
2019-03-26T03:30:08.354Z,2.50
2019-03-26T03:35:57.136Z,3.17
2019-03-26T03:38:42.951Z,2.77
2019-03-26T03:41:27.170Z,3.90
2019-03-26T03:44:11.317Z,3.22
2019-03-26T03:46:55.581Z,3.13
2019-03-26T03:49:40.068Z,2.83
2019-03-26T03:52:24.677Z,3.43
2019-03-26T03:55:14.961Z,3.85
2019-03-26T03:58:00.103Z,3.60
2019-03-26T04:00:45.244Z,3.20
2019-03-26T04:03:30.183Z,3.30
2019-03-26T04:06:14.451Z,3.05
2019-03-26T04:08:59.010Z,3.17
2019-03-26T04:11:32.290Z,3.30
2019-03-26T04:14:16.647Z,3.50
2019-03-26T04:17:01.488Z,3.10
2019-03-26T04:19:46.130Z,2.83
2019-03-26T04:22:30.879Z,3.33
2019-03-26T04:25:15.118Z,3.43
2019-03-26T04:27:59.945Z,3.17
2019-03-26T04:30:44.751Z,3.17
2019-03-26T04:33:29.431Z,3.10
2019-03-26T04:36:25.336Z,2.93
2019-03-26T04:39:00.447Z,3.37
2019-03-26T04:41:35.511Z,2.97
2019-03-26T04:44:20.242Z,3.00
2019-03-26T04:47:06.014Z,3.33
2019-03-26T04:49:51.026Z,2.87
2019-03-26T04:52:35.426Z,2.80
2019-03-26T04:55:24.628Z,2.70
2019-03-26T04:58:09.059Z,2.30
2019-03-26T05:00:53.131Z,2.07
2019-03-26T05:03:36.901Z,2.00
2019-03-26T05:06:21.022Z,1.83
2019-03-26T05:09:05.611Z,2.33
2019-03-26T05:11:49.620Z,2.73
2019-03-26T05:14:33.443Z,2.10
2019-03-26T05:17:18.370Z,2.00
2019-03-26T05:20:03.368Z,2.00
2019-03-26T05:22:48.233Z,1.80
2019-03-26T05:25:32.793Z,1.72
2019-03-26T05:28:17.148Z,1.93
2019-03-26T05:31:01.461Z,2.13
2019-03-26T05:33:47.182Z,1.77
2019-03-26T05:36:32.541Z,2.07
2019-03-26T05:39:16.931Z,2.40
2019-03-26T05:42:01.632Z,2.13
2019-03-26T05:44:46.039Z,2.07
2019-03-26T05:47:30.360Z,2.10
2019-03-26T05:50:15.011Z,1.90
2019-03-26T05:52:59.355Z,1.83
2019-03-26T05:55:44.265Z,1.93
2019-03-26T05:58:28.786Z,2.47
2019-03-26T06:01:12.996Z,1.80
2019-03-26T06:03:57.955Z,2.67
2019-03-26T06:06:42.072Z,2.10
2019-03-26T06:09:26.499Z,2.03
2019-03-26T06:12:11.529Z,2.25
2019-03-26T06:14:56.592Z,2.08
2019-03-26T06:17:41.321Z,2.70
2019-03-26T06:20:25.441Z,3.12
2019-03-26T06:23:10.546Z,2.40
2019-03-26T06:25:55.190Z,2.53
2019-03-26T06:28:39.849Z,2.33
2019-03-26T06:31:24.303Z,2.00
2019-03-26T06:34:11.040Z,2.27
2019-03-26T06:36:55.800Z,2.17
2019-03-26T06:39:42.447Z,1.87
2019-03-26T06:42:27.485Z,2.90
2019-03-26T06:45:13.285Z,2.60
2019-03-26T06:47:58.342Z,2.30
2019-03-26T06:50:43.424Z,2.30
2019-03-26T06:53:29.486Z,2.70
2019-03-26T06:56:15.148Z,2.07
2019-03-26T06:59:00.329Z,2.30
2019-03-26T07:01:43.786Z,1.73
2019-03-26T07:04:29.445Z,2.08
2019-03-26T07:07:14.452Z,2.05
2019-03-26T07:09:59.258Z,2.72
2019-03-26T07:12:43.493Z,2.37
2019-03-26T07:21:49.731Z,2.37
2019-03-26T07:24:32.128Z,2.50
2019-03-26T07:27:05.183Z,2.60
2019-03-26T07:29:48.998Z,2.60
2019-03-26T07:32:39.289Z,2.63
2019-03-26T07:35:23.576Z,3.13
2019-03-26T07:38:08.657Z,2.62
2019-03-26T07:40:53.659Z,2.70
2019-03-26T07:43:37.964Z,3.50
2019-03-26T07:46:26.097Z,2.90
2019-03-26T07:49:11.308Z,3.00
2019-03-26T07:52:01.901Z,2.72
2019-03-26T07:54:45.779Z,3.27
2019-03-26T07:57:30.739Z,2.30
2019-03-26T08:00:14.996Z,2.10
2019-03-26T08:02:59.006Z,2.40
2019-03-26T08:05:43.096Z,2.83
2019-03-26T08:08:27.132Z,2.30
2019-03-26T08:11:10.965Z,2.33
2019-03-26T08:13:55.467Z,1.83
2019-03-26T08:16:39.708Z,1.22
2019-03-26T08:19:23.683Z,1.40
2019-03-26T08:22:07.621Z,1.23
2019-03-26T08:24:52.523Z,1.45
2019-03-26T08:27:37.482Z,1.27
2019-03-26T08:30:23.550Z,1.47
2019-03-26T08:33:07.927Z,1.40
2019-03-26T08:35:52.463Z,1.20
2019-03-26T08:38:37.638Z,1.23
2019-03-26T08:41:23.162Z,2.43
2019-03-26T08:44:08.778Z,2.13
2019-03-26T08:46:54.096Z,1.83
2019-03-26T08:49:38.427Z,2.43
2019-03-26T08:52:13.456Z,2.00
2019-03-26T08:54:57.721Z,2.00
2019-03-26T08:57:41.787Z,2.60
2019-03-26T09:00:26.450Z,2.30
2019-03-26T09:03:11.239Z,2.07
2019-03-26T09:05:56.644Z,2.43
2019-03-26T09:08:41.039Z,1.70
2019-03-26T09:11:26.106Z,3.13
2019-03-26T09:14:09.361Z,2.67
2019-03-26T09:16:53.771Z,2.27
2019-03-26T09:19:37.818Z,2.25
2019-03-26T09:25:24.223Z,2.23
2019-03-26T09:28:08.716Z,2.10
2019-03-26T09:30:53.021Z,2.93
2019-03-26T09:33:40.384Z,1.80
2019-03-26T09:36:24.740Z,1.90
2019-03-26T09:39:08.547Z,1.45
2019-03-26T09:41:52.782Z,2.03
2019-03-26T09:44:38.250Z,1.97
2019-03-26T09:47:22.294Z,1.50
2019-03-26T09:49:57.311Z,1.57
2019-03-26T09:52:41.821Z,1.73
2019-03-26T09:55:26.166Z,1.75
2019-03-26T09:58:11.804Z,1.40
2019-03-26T10:00:56.737Z,1.67
2019-03-26T10:03:40.887Z,1.93
2019-03-26T10:06:25.681Z,2.03
2019-03-26T10:09:10.405Z,1.60
2019-03-26T10:11:54.852Z,1.40
2019-03-26T10:14:39.659Z,1.80
2019-03-26T10:17:12.725Z,1.87
2019-03-26T10:19:57.385Z,1.27
2019-03-26T10:22:41.622Z,1.67
2019-03-26T10:25:28.903Z,1.73
2019-03-26T10:28:21.252Z,1.43
2019-03-26T10:31:05.854Z,0.97
2019-03-26T10:33:50.393Z,1.20
2019-03-26T10:36:34.564Z,1.00
2019-03-26T10:39:09.380Z,1.25
2019-03-26T10:41:55.478Z,1.20
2019-03-26T10:44:40.350Z,1.37
2019-03-26T10:47:25.090Z,1.17
2019-03-26T10:50:10.559Z,1.20
2019-03-26T10:52:55.159Z,1.23
2019-03-26T10:55:38.961Z,1.07
2019-03-26T10:58:12.652Z,1.40
2019-03-26T11:00:57.797Z,1.60
2019-03-26T11:03:41.912Z,1.13
2019-03-26T11:06:28.138Z,1.37
2019-03-26T11:09:21.279Z,1.25
2019-03-26T11:12:04.852Z,1.00
2019-03-26T11:14:49.674Z,1.37
2019-03-26T11:17:34.079Z,1.30
2019-03-26T11:20:18.275Z,1.73
2019-03-26T11:23:05.428Z,2.00
2019-03-26T11:25:49.978Z,1.90
2019-03-26T11:28:37.439Z,1.73
2019-03-26T11:31:21.605Z,1.90
2019-03-26T11:34:06.647Z,1.70
2019-03-26T11:36:51.246Z,2.03
2019-03-26T11:39:37.402Z,1.90
2019-03-26T11:42:21.600Z,1.70
2019-03-26T11:45:09.950Z,1.47
2019-03-26T11:48:00.260Z,2.03
2019-03-26T11:50:44.817Z,1.97
2019-03-26T11:53:29.423Z,1.70
2019-03-26T11:56:14.087Z,1.55
2019-03-26T11:58:57.889Z,1.87
2019-03-26T12:01:42.852Z,2.00
2019-03-26T12:04:28.243Z,2.33
2019-03-26T12:07:12.642Z,2.00
2019-03-26T12:09:57.024Z,1.53
2019-03-26T12:12:43.513Z,1.50
2019-03-26T12:15:27.794Z,1.87
2019-03-26T12:18:12.536Z,1.63
2019-03-26T12:20:56.387Z,1.10
2019-03-26T12:23:41.607Z,1.15
2019-03-26T12:26:26.307Z,1.57
2019-03-26T12:29:11.014Z,1.53
2019-03-26T12:31:54.981Z,1.20
2019-03-26T12:34:39.825Z,1.40
2019-03-26T12:37:25.648Z,1.53
2019-03-26T12:40:09.371Z,1.70
2019-03-26T12:42:53.775Z,1.60
2019-03-26T12:45:26.788Z,1.70
2019-03-26T12:48:11.352Z,2.33
2019-03-26T12:50:56.021Z,1.80
2019-03-26T12:53:41.317Z,1.90
2019-03-26T12:56:28.926Z,2.00
2019-03-26T12:59:30.426Z,1.95
2019-03-26T13:02:15.402Z,1.33
2019-03-26T13:04:59.324Z,2.07
2019-03-26T13:07:44.837Z,1.80
2019-03-26T13:10:28.761Z,1.20
2019-03-26T13:13:13.479Z,1.60
2019-03-26T13:15:57.262Z,1.60
2019-03-26T13:18:41.066Z,1.93
2019-03-26T13:21:27.980Z,1.30
2019-03-26T13:24:11.914Z,1.83
2019-03-26T13:26:56.265Z,1.50
2019-03-26T13:29:40.921Z,1.63
2019-03-26T13:32:24.765Z,1.73
2019-03-26T13:35:09.319Z,2.67
2019-03-26T13:37:53.744Z,1.90
2019-03-26T13:40:27.938Z,2.20
2019-03-26T13:43:25.603Z,1.83
2019-03-26T13:46:12.331Z,2.07
2019-03-26T13:48:57.874Z,1.70
2019-03-26T13:51:41.865Z,1.83
2019-03-26T13:54:26.071Z,1.47
2019-03-26T13:57:10.254Z,2.00
2019-03-26T13:59:55.074Z,1.83
2019-03-26T14:02:39.661Z,1.83
2019-03-26T14:05:24.528Z,2.07
2019-03-26T14:08:08.944Z,1.40
2019-03-26T14:10:53.684Z,1.20
2019-03-26T14:13:38.186Z,1.27
2019-03-26T14:16:22.120Z,1.25
2019-03-26T14:19:06.604Z,1.30
2019-03-26T14:21:51.180Z,1.20
2019-03-26T14:24:36.284Z,1.33
2019-03-26T14:27:20.431Z,1.20
2019-03-26T14:30:04.963Z,1.30
2019-03-26T14:32:49.706Z,1.87
2019-03-26T14:35:33.828Z,1.43
2019-03-26T14:38:08.272Z,1.50
2019-03-26T14:40:54.183Z,1.37
2019-03-26T14:43:39.793Z,1.80
2019-03-26T14:46:24.249Z,1.73
2019-03-26T14:49:09.012Z,1.80
2019-03-26T14:51:53.464Z,1.40
2019-03-26T14:54:37.329Z,1.05
2019-03-26T14:57:20.867Z,1.00
2019-03-26T15:00:04.840Z,0.97
2019-03-26T15:02:50.716Z,0.93
2019-03-26T15:05:37.108Z,1.00
2019-03-26T15:08:23.417Z,1.05
2019-03-26T15:11:08.520Z,1.00
2019-03-26T15:13:52.474Z,0.50
2019-03-26T15:16:36.417Z,0.60
2019-03-26T15:19:20.212Z,0.50
2019-03-26T15:22:04.421Z,0.80
2019-03-26T15:24:48.263Z,0.60
2019-03-26T15:27:21.580Z,0.70
2019-03-26T15:30:06.491Z,0.57
2019-03-26T15:32:51.081Z,0.62
2019-03-26T15:35:35.286Z,0.90
2019-03-26T15:38:19.710Z,1.03
2019-03-26T15:43:52.840Z,1.37
2019-03-26T15:46:38.349Z,1.27
2019-03-26T15:49:22.751Z,1.67
2019-03-26T15:52:08.429Z,2.20
2019-03-26T15:54:42.475Z,1.97
2019-03-26T15:57:27.017Z,2.00
2019-03-26T16:00:11.400Z,2.20
2019-03-26T16:02:55.803Z,2.30
2019-03-26T16:05:40.717Z,3.03
2019-03-26T16:08:25.733Z,2.70
2019-03-26T16:11:10.093Z,2.95
2019-03-26T16:13:54.531Z,3.40
2019-03-26T16:16:38.590Z,2.80
2019-03-26T16:19:32.223Z,3.23
2019-03-26T16:22:08.733Z,3.33
2019-03-26T16:24:53.467Z,4.17
2019-03-26T16:27:37.588Z,4.33
2019-03-26T16:30:23.395Z,4.70
2019-03-26T16:33:08.103Z,4.33
2019-03-26T16:35:53.053Z,4.03
2019-03-26T16:38:37.379Z,4.17
2019-03-26T16:41:22.824Z,3.57
2019-03-26T16:44:07.313Z,3.63
2019-03-26T16:46:52.347Z,4.20
2019-03-26T16:49:36.973Z,3.70
2019-03-26T16:52:21.915Z,3.70
2019-03-26T16:55:06.878Z,3.95
2019-03-26T16:57:51.676Z,4.43
2019-03-26T17:00:36.430Z,4.80
2019-03-26T17:03:31.059Z,3.72
2019-03-26T17:06:11.900Z,3.90
2019-03-26T17:08:57.217Z,3.63
2019-03-26T17:11:41.507Z,3.23
2019-03-26T17:14:26.348Z,3.83
2019-03-26T17:17:10.753Z,3.67
2019-03-26T17:19:55.373Z,3.33
2019-03-26T17:22:40.407Z,4.00
2019-03-26T17:25:24.773Z,4.03
2019-03-26T17:28:10.418Z,3.30
2019-03-26T17:30:45.072Z,3.87
2019-03-26T17:33:31.237Z,3.87
2019-03-26T17:36:21.535Z,4.10
2019-03-26T17:39:07.611Z,3.40
2019-03-26T17:41:53.617Z,3.20
2019-03-26T17:44:37.587Z,3.00
2019-03-26T17:47:25.189Z,3.62
2019-03-26T17:50:09.361Z,3.37
2019-03-26T17:52:53.527Z,3.27
2019-03-26T17:55:37.448Z,3.83
2019-03-26T17:58:21.923Z,3.17
2019-03-26T18:01:06.481Z,3.47
2019-03-26T18:03:50.570Z,3.27
2019-03-26T18:06:34.771Z,3.40
2019-03-26T18:09:18.851Z,4.13
2019-03-26T18:12:02.709Z,4.13
2019-03-26T18:14:46.588Z,4.00
2019-03-26T18:17:30.961Z,4.35
2019-03-26T18:20:15.744Z,3.30
2019-03-26T18:23:00.156Z,3.90
2019-03-26T18:25:44.007Z,3.00
2019-03-26T18:28:28.021Z,3.97
2019-03-26T18:31:12.459Z,3.33
2019-03-26T18:33:57.112Z,5.17
2019-03-26T18:36:41.401Z,4.70
2019-03-26T18:39:26.168Z,3.90
2019-03-26T18:42:10.503Z,4.97
2019-03-26T18:44:54.606Z,4.07
2019-03-26T18:47:39.430Z,3.90
2019-03-26T18:50:26.165Z,3.80
2019-03-26T18:53:10.924Z,4.10
2019-03-26T18:55:54.734Z,3.60
2019-03-26T18:58:38.663Z,4.22
2019-03-26T19:01:23.673Z,3.80
2019-03-26T19:04:08.448Z,3.27
2019-03-26T19:06:52.139Z,4.13
2019-03-26T19:09:36.423Z,3.87
2019-03-26T19:12:20.990Z,3.40
2019-03-26T19:15:05.929Z,4.20
2019-03-26T19:17:39.455Z,4.37
2019-03-26T19:20:12.902Z,4.40
2019-03-26T19:22:57.062Z,3.70
2019-03-26T19:25:41.383Z,3.43
2019-03-26T19:28:25.168Z,3.70
2019-03-26T19:31:09.831Z,3.70
2019-03-26T19:33:54.090Z,3.37
2019-03-26T19:36:38.737Z,4.50
2019-03-26T19:39:23.995Z,4.43
2019-03-26T19:42:08.521Z,3.60
2019-03-26T19:47:37.876Z,3.77
2019-03-26T19:50:23.900Z,4.10
2019-03-26T19:53:08.168Z,3.92
2019-03-26T19:55:53.311Z,4.23
2019-03-26T19:58:36.190Z,4.30
2019-03-26T20:01:18.237Z,4.43
2019-03-26T20:04:02.314Z,4.00
2019-03-26T20:06:46.302Z,3.50
2019-03-26T20:09:30.432Z,3.87
2019-03-26T20:12:15.089Z,4.15
2019-03-26T20:14:59.070Z,3.77
2019-03-26T20:17:43.787Z,3.97
2019-03-26T20:20:28.008Z,4.47
2019-03-26T20:23:12.206Z,4.63
2019-03-26T20:25:59.972Z,4.20
2019-03-26T20:28:44.558Z,5.33
2019-03-26T20:31:29.265Z,4.20
2019-03-26T20:34:13.853Z,4.53
2019-03-26T20:36:58.133Z,4.97
2019-03-26T20:39:42.048Z,4.43
2019-03-26T20:42:26.660Z,5.43
2019-03-26T20:45:00.002Z,5.40
2019-03-26T20:47:44.360Z,4.97
2019-03-26T20:50:28.314Z,4.15
2019-03-26T20:53:12.643Z,5.13
2019-03-26T20:55:56.817Z,4.23
2019-03-26T20:58:41.899Z,4.15
2019-03-26T21:01:15.550Z,4.62
2019-03-26T21:04:00.377Z,4.42
2019-03-26T21:06:45.180Z,4.23
2019-03-26T21:09:29.408Z,4.90
2019-03-26T21:12:13.767Z,4.65
2019-03-26T21:14:57.918Z,4.67
2019-03-26T21:17:41.752Z,4.80
2019-03-26T21:20:26.254Z,4.23
2019-03-26T21:23:10.934Z,4.47
2019-03-26T21:25:54.990Z,5.67
2019-03-26T21:28:40.296Z,5.00
2019-03-26T21:31:24.119Z,4.43
2019-03-26T21:34:08.636Z,4.03
2019-03-26T21:36:52.917Z,4.70
2019-03-26T21:39:37.892Z,3.92
2019-03-26T21:42:22.709Z,3.90
2019-03-26T21:45:07.603Z,4.50
2019-03-26T21:47:51.694Z,4.17
2019-03-26T21:50:36.546Z,3.90
2019-03-26T21:53:20.243Z,5.10
2019-03-26T21:56:06.704Z,4.23
2019-03-26T21:58:51.423Z,4.45
2019-03-26T22:01:36.274Z,4.47
2019-03-26T22:04:20.675Z,4.80
2019-03-26T22:07:05.467Z,4.30
2019-03-26T22:09:49.382Z,4.93
2019-03-26T22:12:34.226Z,4.10
2019-03-26T22:15:19.036Z,4.30
2019-03-26T22:18:03.747Z,4.23
2019-03-26T22:20:48.780Z,4.85
2019-03-26T22:23:32.565Z,4.17
2019-03-26T22:26:17.412Z,5.12
2019-03-26T22:29:01.822Z,5.37
2019-03-26T22:31:46.505Z,4.12
2019-03-26T22:34:31.187Z,4.50
2019-03-26T22:37:16.510Z,4.53
2019-03-26T22:40:01.378Z,4.70
2019-03-26T22:42:45.966Z,4.53
2019-03-26T22:45:30.698Z,4.67
2019-03-26T22:48:14.567Z,4.10
2019-03-26T22:50:58.710Z,4.33
2019-03-26T22:53:42.821Z,5.03
2019-03-26T22:56:28.054Z,4.63
2019-03-26T22:59:12.664Z,3.70
2019-03-26T23:01:57.557Z,4.28
2019-03-26T23:04:41.821Z,4.13
2019-03-26T23:07:26.300Z,4.43
2019-03-26T23:10:10.333Z,4.67
2019-03-26T23:12:54.204Z,4.40
2019-03-26T23:15:38.453Z,4.25
2019-03-26T23:18:22.538Z,4.65
2019-03-26T23:21:06.800Z,4.50
2019-03-26T23:23:51.528Z,4.30
2019-03-26T23:26:35.594Z,4.97
2019-03-26T23:29:19.605Z,4.43
2019-03-26T23:32:03.732Z,5.13
2019-03-26T23:34:47.520Z,4.62
2019-03-26T23:37:31.445Z,4.67
2019-03-26T23:40:16.166Z,4.83
2019-03-26T23:43:00.808Z,4.92
2019-03-26T23:45:46.009Z,5.10
2019-03-26T23:48:30.934Z,4.67
2019-03-26T23:51:15.340Z,4.90
2019-03-26T23:53:59.107Z,4.92
2019-03-26T23:56:43.479Z,5.25
2019-03-26T23:59:28.025Z,5.50
